createdAt,value
2018-08-06T00:00:28.757Z,1.70
2018-08-06T00:02:57.313Z,2.00
2018-08-06T00:05:25.824Z,1.70
2018-08-06T00:07:54.283Z,2.10
2018-08-06T00:10:24.480Z,2.30
2018-08-06T00:12:53.001Z,1.93
2018-08-06T00:15:21.537Z,1.97
2018-08-06T00:17:50.036Z,1.87
2018-08-06T00:20:18.589Z,2.50
2018-08-06T00:22:47.066Z,2.70
2018-08-06T00:25:16.574Z,2.50
2018-08-06T00:27:45.385Z,2.00
2018-08-06T00:30:16.917Z,1.90
2018-08-06T00:32:46.244Z,1.87
2018-08-06T00:35:15.035Z,2.27
2018-08-06T00:37:43.564Z,1.97
2018-08-06T00:40:14.568Z,1.50
2018-08-06T00:42:43.896Z,2.10
2018-08-06T00:45:14.445Z,2.60
2018-08-06T00:47:43.145Z,2.00
2018-08-06T00:50:12.252Z,2.00
2018-08-06T00:52:40.691Z,2.20
2018-08-06T00:55:11.542Z,2.23
2018-08-06T00:57:40.435Z,1.77
2018-08-06T01:00:11.469Z,2.47
2018-08-06T01:02:39.994Z,2.27
2018-08-06T01:05:09.878Z,2.03
2018-08-06T01:07:39.045Z,3.07
2018-08-06T01:10:09.807Z,2.57
2018-08-06T01:12:39.392Z,2.60
2018-08-06T01:15:09.068Z,2.57
2018-08-06T01:17:37.544Z,2.47
2018-08-06T01:20:07.160Z,2.60
2018-08-06T01:22:35.652Z,2.43
2018-08-06T01:25:04.236Z,2.10
2018-08-06T01:27:32.841Z,1.90
2018-08-06T01:30:01.269Z,2.77
2018-08-06T01:32:29.750Z,1.40
2018-08-06T01:34:58.193Z,1.87
2018-08-06T01:37:26.675Z,2.20
2018-08-06T01:39:55.179Z,1.90
2018-08-06T01:42:23.761Z,1.80
2018-08-06T01:44:52.235Z,2.03
2018-08-06T01:47:20.719Z,2.60
2018-08-06T01:49:49.624Z,1.70
2018-08-06T01:52:18.114Z,2.63
2018-08-06T01:54:46.557Z,2.23
2018-08-06T01:57:15.030Z,2.07
2018-08-06T01:59:43.560Z,2.20
2018-08-06T02:02:12.068Z,1.63
2018-08-06T02:04:40.500Z,1.77
2018-08-06T02:07:09.330Z,2.20
2018-08-06T02:09:37.926Z,2.00
2018-08-06T02:12:06.953Z,2.50
2018-08-06T02:14:36.304Z,2.43
2018-08-06T02:17:04.856Z,3.00
2018-08-06T02:19:33.368Z,2.20
2018-08-06T02:22:01.878Z,2.40
2018-08-06T02:24:30.334Z,3.40
2018-08-06T02:26:58.773Z,2.10
2018-08-06T02:29:27.258Z,2.60
2018-08-06T02:31:55.717Z,2.40
2018-08-06T02:34:24.213Z,2.43
2018-08-06T02:36:52.641Z,2.07
2018-08-06T02:39:21.125Z,3.03
2018-08-06T02:41:49.584Z,2.00
2018-08-06T02:44:18.081Z,2.20
2018-08-06T02:46:46.562Z,1.93
2018-08-06T02:49:15.056Z,2.07
2018-08-06T02:51:43.560Z,2.40
2018-08-06T02:54:11.997Z,2.50
2018-08-06T02:56:40.476Z,2.03
2018-08-06T02:59:08.920Z,2.00
2018-08-06T03:01:37.413Z,1.93
2018-08-06T03:04:06.014Z,1.57
2018-08-06T03:06:34.462Z,2.47
2018-08-06T03:09:03.030Z,2.60
2018-08-06T03:11:31.506Z,2.63
2018-08-06T03:13:59.961Z,2.80
2018-08-06T03:16:28.425Z,2.20
2018-08-06T03:18:56.886Z,2.10
2018-08-06T03:21:25.365Z,2.57
2018-08-06T03:23:53.805Z,2.20
2018-08-06T03:26:22.282Z,2.07
2018-08-06T03:28:50.805Z,3.03
2018-08-06T03:31:19.318Z,2.13
2018-08-06T03:33:47.789Z,2.40
2018-08-06T03:36:15.905Z,1.87
2018-08-06T03:38:44.377Z,1.97
2018-08-06T03:41:12.841Z,1.63
2018-08-06T03:43:41.313Z,1.97
2018-08-06T03:46:09.740Z,2.00
2018-08-06T03:48:38.181Z,1.90
2018-08-06T03:51:06.632Z,1.67
2018-08-06T03:53:35.134Z,2.10
2018-08-06T03:56:03.620Z,2.67
2018-08-06T03:58:32.061Z,2.03
2018-08-06T04:01:00.501Z,1.97
2018-08-06T04:03:28.974Z,2.10
2018-08-06T04:05:57.408Z,2.10
2018-08-06T04:08:25.873Z,2.50
2018-08-06T04:10:53.972Z,2.20
2018-08-06T04:13:22.532Z,1.90
2018-08-06T04:15:50.953Z,1.90
2018-08-06T04:18:19.393Z,2.20
2018-08-06T04:20:47.840Z,2.20
2018-08-06T04:23:16.285Z,2.40
2018-08-06T04:25:44.767Z,2.00
2018-08-06T04:28:13.225Z,2.30
2018-08-06T04:30:41.696Z,2.57
2018-08-06T04:33:10.163Z,2.50
2018-08-06T04:35:38.615Z,2.37
2018-08-06T04:38:07.100Z,3.00
2018-08-06T04:40:35.566Z,4.03
2018-08-06T04:43:04.026Z,3.00
2018-08-06T04:45:32.546Z,2.27
2018-08-06T04:48:01.001Z,2.10
2018-08-06T04:50:29.471Z,2.17
2018-08-06T04:52:57.904Z,2.10
2018-08-06T04:55:26.327Z,2.20
2018-08-06T04:57:54.789Z,2.33
2018-08-06T05:00:23.235Z,2.07
2018-08-06T05:02:51.716Z,2.07
2018-08-06T05:05:20.184Z,2.90
2018-08-06T05:07:48.628Z,2.27
2018-08-06T05:10:17.076Z,2.57
2018-08-06T05:12:45.532Z,2.73
2018-08-06T05:15:14.052Z,2.67
2018-08-06T05:17:42.508Z,2.20
2018-08-06T05:20:10.986Z,2.40
2018-08-06T05:22:39.465Z,1.77
2018-08-06T05:25:07.964Z,2.47
2018-08-06T05:27:36.396Z,2.53
2018-08-06T05:30:07.361Z,2.80
2018-08-06T05:32:35.865Z,2.60
2018-08-06T05:35:04.821Z,3.20
2018-08-06T05:37:33.352Z,2.70
2018-08-06T05:40:01.926Z,2.10
2018-08-06T05:42:30.274Z,2.30
2018-08-06T05:44:58.716Z,2.50
2018-08-06T05:47:27.196Z,2.97
2018-08-06T05:49:55.644Z,2.33
2018-08-06T05:52:24.129Z,2.47
2018-08-06T05:54:52.609Z,2.73
2018-08-06T05:57:21.134Z,1.80
2018-08-06T05:59:49.589Z,2.10
2018-08-06T06:02:18.069Z,2.20
2018-08-06T06:04:46.569Z,2.17
2018-08-06T06:07:15.080Z,1.80
2018-08-06T06:09:43.553Z,2.23
2018-08-06T06:12:12.051Z,1.60
2018-08-06T06:14:40.537Z,1.87
2018-08-06T06:17:09.053Z,1.90
2018-08-06T06:19:37.531Z,2.17
2018-08-06T06:22:06.021Z,1.90
2018-08-06T06:24:34.488Z,2.37
2018-08-06T06:27:03.034Z,2.17
2018-08-06T06:29:31.549Z,2.20
2018-08-06T06:32:00.018Z,1.70
2018-08-06T06:34:28.537Z,1.60
2018-08-06T06:36:56.945Z,1.80
2018-08-06T06:39:25.396Z,2.07
2018-08-06T06:41:53.897Z,1.83
2018-08-06T06:44:22.393Z,1.87
2018-08-06T06:46:50.887Z,2.03
2018-08-06T06:49:19.428Z,1.80
2018-08-06T06:51:47.850Z,1.93
2018-08-06T06:54:16.392Z,1.27
2018-08-06T06:56:44.800Z,1.80
2018-08-06T06:59:13.302Z,1.83
2018-08-06T07:01:41.761Z,2.13
2018-08-06T07:04:10.302Z,1.80
2018-08-06T07:06:38.808Z,1.60
2018-08-06T07:09:09.818Z,1.50
2018-08-06T07:11:38.294Z,1.80
2018-08-06T07:14:06.856Z,1.40
2018-08-06T07:16:35.341Z,1.70
2018-08-06T07:19:03.882Z,1.93
2018-08-06T07:21:32.294Z,1.80
2018-08-06T07:24:00.741Z,2.10
2018-08-06T07:26:29.321Z,2.00
2018-08-06T07:28:57.784Z,1.47
2018-08-06T07:31:26.233Z,1.67
2018-08-06T07:33:54.716Z,1.70
2018-08-06T07:36:23.225Z,2.10
2018-08-06T07:38:51.723Z,1.70
2018-08-06T07:41:20.338Z,1.70
2018-08-06T07:43:48.771Z,1.90
2018-08-06T07:46:17.277Z,1.83
2018-08-06T07:48:45.788Z,1.50
2018-08-06T07:51:14.261Z,1.93
2018-08-06T07:53:42.718Z,2.03
2018-08-06T07:56:11.192Z,2.10
2018-08-06T07:58:39.690Z,1.67
2018-08-06T08:01:08.190Z,1.53
2018-08-06T08:03:36.665Z,2.00
2018-08-06T08:06:05.170Z,2.03
2018-08-06T08:08:33.330Z,1.77
2018-08-06T08:11:01.797Z,1.80
2018-08-06T08:13:30.262Z,2.10
2018-08-06T08:15:58.720Z,1.73
2018-08-06T08:18:27.232Z,2.03
2018-08-06T08:20:55.738Z,2.03
2018-08-06T08:23:24.200Z,2.33
2018-08-06T08:25:52.693Z,1.87
2018-08-06T08:28:21.173Z,2.50
2018-08-06T08:30:49.733Z,2.10
2018-08-06T08:33:18.174Z,2.10
2018-08-06T08:35:46.641Z,2.53
2018-08-06T08:38:15.131Z,2.00
2018-08-06T08:40:43.573Z,2.10
2018-08-06T08:43:12.036Z,1.70
2018-08-06T08:45:40.575Z,2.20
2018-08-06T08:48:09.041Z,2.40
2018-08-06T08:50:37.542Z,2.37
2018-08-06T08:53:06.073Z,2.03
2018-08-06T08:55:34.618Z,2.00
2018-08-06T08:58:03.117Z,1.87
2018-08-06T09:00:31.616Z,2.90
2018-08-06T09:03:00.104Z,2.07
2018-08-06T09:05:28.597Z,2.33
2018-08-06T09:07:57.099Z,2.10
2018-08-06T09:10:25.601Z,2.40
2018-08-06T09:12:54.045Z,2.13
2018-08-06T09:15:24.541Z,2.33
2018-08-06T09:17:53.072Z,2.00
2018-08-06T09:20:21.757Z,1.60
2018-08-06T09:22:50.224Z,1.97
2018-08-06T09:25:18.781Z,2.87
2018-08-06T09:27:48.740Z,2.00
2018-08-06T09:30:19.599Z,1.50
2018-08-06T09:32:50.218Z,1.70
2018-08-06T09:35:19.321Z,2.27
2018-08-06T09:37:47.781Z,2.30
2018-08-06T09:40:17.619Z,2.00
2018-08-06T09:42:47.028Z,2.70
2018-08-06T09:45:16.707Z,2.40
2018-08-06T09:47:46.497Z,2.83
2018-08-06T09:50:15.804Z,2.17
2018-08-06T09:52:45.329Z,2.40
2018-08-06T09:55:17.520Z,2.10
2018-08-06T09:57:46.456Z,2.23
2018-08-06T10:00:21.702Z,1.90
2018-08-06T10:02:51.089Z,2.50
2018-08-06T10:05:20.821Z,2.10
2018-08-06T10:07:49.343Z,1.57
2018-08-06T10:10:17.850Z,1.80
2018-08-06T10:12:46.760Z,2.20
2018-08-06T10:15:15.636Z,1.70
2018-08-06T10:17:45.159Z,1.73
2018-08-06T10:20:16.882Z,1.70
2018-08-06T10:22:45.436Z,2.40
2018-08-06T10:25:14.761Z,2.37
2018-08-06T10:27:44.081Z,3.27
2018-08-06T10:30:14.444Z,2.40
2018-08-06T10:32:43.096Z,1.80
2018-08-06T10:35:12.885Z,2.77
2018-08-06T10:37:41.381Z,2.00
2018-08-06T10:40:15.113Z,2.00
2018-08-06T10:42:44.262Z,1.90
2018-08-06T10:45:14.909Z,1.93
2018-08-06T10:47:43.453Z,1.97
2018-08-06T10:50:12.277Z,2.20
2018-08-06T10:52:40.767Z,2.03
2018-08-06T10:55:10.264Z,1.97
2018-08-06T10:57:40.056Z,1.73
2018-08-06T11:00:11.311Z,1.80
2018-08-06T11:02:39.848Z,1.50
2018-08-06T11:05:09.897Z,1.80
2018-08-06T11:07:38.504Z,1.87
2018-08-06T11:10:10.039Z,2.10
2018-08-06T11:12:39.250Z,2.13
2018-08-06T11:15:11.810Z,2.10
2018-08-06T11:17:40.536Z,2.57
2018-08-06T11:20:10.800Z,2.60
2018-08-06T11:22:39.939Z,1.90
2018-08-06T11:25:09.951Z,1.87
2018-08-06T11:27:38.465Z,1.97
2018-08-06T11:30:08.062Z,1.60
2018-08-06T11:32:36.261Z,2.00
2018-08-06T11:35:04.838Z,1.50
2018-08-06T11:37:32.967Z,2.60
2018-08-06T11:40:01.200Z,1.83
2018-08-06T11:42:29.660Z,2.07
2018-08-06T11:44:58.093Z,1.83
2018-08-06T11:47:26.269Z,1.57
2018-08-06T11:49:54.458Z,1.63
2018-08-06T11:52:22.590Z,1.83
2018-08-06T11:54:50.904Z,1.77
2018-08-06T11:57:19.170Z,1.70
2018-08-06T11:59:47.291Z,2.27
2018-08-06T12:02:15.561Z,1.60
2018-08-06T12:04:44.040Z,1.60
2018-08-06T12:07:12.953Z,1.90
2018-08-06T12:09:41.315Z,2.37
2018-08-06T12:12:09.500Z,2.37
2018-08-06T12:14:37.725Z,2.27
2018-08-06T12:17:05.852Z,1.70
2018-08-06T12:19:34.013Z,1.90
2018-08-06T12:22:02.504Z,1.60
2018-08-06T12:24:31.004Z,1.70
2018-08-06T12:26:59.117Z,1.70
2018-08-06T12:29:28.129Z,2.03
2018-08-06T12:31:56.625Z,2.20
2018-08-06T12:34:25.088Z,2.40
2018-08-06T12:36:53.559Z,1.80
2018-08-06T12:39:21.696Z,2.27
2018-08-06T12:41:50.155Z,2.23
2018-08-06T12:44:18.350Z,2.30
2018-08-06T12:46:46.485Z,2.10
2018-08-06T12:49:15.252Z,2.10
2018-08-06T12:51:43.554Z,1.80
2018-08-06T12:54:12.033Z,1.77
2018-08-06T12:56:40.481Z,1.80
2018-08-06T12:59:08.982Z,1.70
2018-08-06T13:01:37.477Z,2.10
2018-08-06T13:04:05.776Z,2.10
2018-08-06T13:06:33.928Z,2.20
2018-08-06T13:09:02.333Z,2.13
2018-08-06T13:11:30.527Z,1.50
2018-08-06T13:13:58.684Z,1.90
2018-08-06T13:16:27.120Z,1.77
2018-08-06T13:18:55.696Z,2.60
2018-08-06T13:21:24.196Z,2.00
2018-08-06T13:23:52.709Z,2.03
2018-08-06T13:26:21.238Z,2.03
2018-08-06T13:28:49.849Z,1.63
2018-08-06T13:31:18.071Z,1.47
2018-08-06T13:33:46.519Z,2.07
2018-08-06T13:36:14.989Z,2.33
2018-08-06T13:38:43.490Z,1.73
2018-08-06T13:41:11.969Z,2.40
2018-08-06T13:43:40.405Z,1.90
2018-08-06T13:46:08.907Z,1.80
2018-08-06T13:48:37.358Z,1.90
2018-08-06T13:51:05.889Z,2.20
2018-08-06T13:53:34.415Z,2.27
2018-08-06T13:56:02.970Z,2.53
2018-08-06T13:58:31.425Z,1.83
2018-08-06T14:00:59.914Z,2.33
2018-08-06T14:03:28.328Z,3.03
2018-08-06T14:05:56.691Z,1.70
2018-08-06T14:08:25.155Z,2.67
2018-08-06T14:10:53.588Z,1.87
2018-08-06T14:13:22.072Z,3.57
2018-08-06T14:15:50.523Z,2.30
2018-08-06T14:18:18.849Z,1.70
2018-08-06T14:20:47.335Z,2.47
2018-08-06T14:23:15.801Z,2.07
2018-08-06T14:25:44.305Z,2.00
2018-08-06T14:28:12.429Z,1.80
2018-08-06T14:30:40.640Z,2.07
2018-08-06T14:33:09.111Z,2.17
2018-08-06T14:35:37.303Z,1.93
2018-08-06T14:38:05.560Z,1.87
2018-08-06T14:40:34.005Z,2.00
2018-08-06T14:43:02.156Z,2.50
2018-08-06T14:45:30.613Z,2.37
2018-08-06T14:47:58.744Z,2.03
2018-08-06T14:50:27.237Z,2.20
2018-08-06T14:52:55.752Z,2.40
2018-08-06T14:55:24.331Z,1.80
2018-08-06T14:57:52.842Z,2.10
2018-08-06T15:00:22.345Z,3.00
2018-08-06T15:02:51.892Z,2.20
2018-08-06T15:05:20.430Z,2.43
2018-08-06T15:07:48.658Z,2.37
2018-08-06T15:10:16.904Z,3.00
2018-08-06T15:12:45.475Z,2.07
2018-08-06T15:15:14.945Z,1.73
2018-08-06T15:17:43.568Z,2.30
2018-08-06T15:20:13.845Z,2.00
2018-08-06T15:22:42.342Z,1.90
2018-08-06T15:25:14.461Z,2.07
2018-08-06T15:27:43.286Z,2.30
2018-08-06T15:30:11.845Z,2.40
2018-08-06T15:32:40.340Z,2.20
2018-08-06T15:35:09.767Z,2.50
2018-08-06T15:37:39.288Z,2.23
2018-08-06T15:40:16.761Z,2.43
2018-08-06T15:42:45.305Z,2.80
2018-08-06T15:45:14.329Z,2.60
2018-08-06T15:47:43.686Z,2.03
2018-08-06T15:50:19.369Z,2.27
2018-08-06T15:52:47.936Z,3.10
2018-08-06T15:55:16.462Z,2.00
2018-08-06T15:57:44.993Z,2.20
2018-08-06T16:00:15.972Z,2.70
2018-08-06T16:02:45.049Z,2.90
2018-08-06T16:05:14.517Z,2.37
2018-08-06T16:07:42.839Z,2.30
2018-08-06T16:10:12.137Z,2.40
2018-08-06T16:12:40.841Z,2.27
2018-08-06T16:15:11.036Z,2.57
2018-08-06T16:17:40.342Z,1.77
2018-08-06T16:20:10.992Z,2.17
2018-08-06T16:22:40.172Z,2.40
2018-08-06T16:25:09.457Z,1.90
2018-08-06T16:27:38.032Z,2.40
2018-08-06T16:30:15.963Z,1.63
2018-08-06T16:32:45.222Z,2.70
2018-08-06T16:35:13.730Z,2.03
2018-08-06T16:37:41.847Z,2.07
2018-08-06T16:40:11.373Z,1.97
2018-08-06T16:42:39.917Z,2.20
2018-08-06T16:45:09.112Z,2.17
2018-08-06T16:47:38.376Z,3.27
2018-08-06T16:50:07.692Z,2.30
2018-08-06T16:52:36.262Z,2.13
2018-08-06T16:55:05.645Z,2.60
2018-08-06T16:57:34.109Z,2.57
2018-08-06T17:00:02.656Z,2.43
2018-08-06T17:02:31.145Z,2.40
2018-08-06T17:04:59.685Z,1.87
2018-08-06T17:07:28.145Z,2.20
2018-08-06T17:09:56.747Z,2.30
2018-08-06T17:12:25.231Z,2.53
2018-08-06T17:14:53.724Z,3.20
2018-08-06T17:17:21.845Z,2.60
2018-08-06T17:19:50.376Z,3.33
2018-08-06T17:22:18.947Z,2.47
2018-08-06T17:24:47.353Z,2.30
2018-08-06T17:27:15.497Z,2.20
2018-08-06T17:29:43.613Z,2.40
2018-08-06T17:32:12.174Z,2.13
2018-08-06T17:34:40.608Z,2.30
2018-08-06T17:37:09.108Z,2.20
2018-08-06T17:39:37.243Z,2.10
2018-08-06T17:42:05.841Z,2.13
2018-08-06T17:44:34.263Z,2.67
2018-08-06T17:47:02.734Z,2.63
2018-08-06T17:49:31.227Z,3.27
2018-08-06T17:51:59.813Z,2.53
2018-08-06T17:54:28.267Z,3.20
2018-08-06T17:56:56.777Z,2.97
2018-08-06T17:59:25.221Z,3.00
2018-08-06T18:01:53.705Z,3.23
2018-08-06T18:04:22.182Z,3.00
2018-08-06T18:06:50.633Z,3.30
2018-08-06T18:09:19.105Z,2.60
2018-08-06T18:11:47.602Z,3.07
2018-08-06T18:14:16.038Z,3.40
2018-08-06T18:16:44.473Z,2.87
2018-08-06T18:19:12.948Z,2.77
2018-08-06T18:21:41.413Z,2.80
2018-08-06T18:24:09.895Z,3.13
2018-08-06T18:26:38.359Z,3.30
2018-08-06T18:29:06.822Z,3.40
2018-08-06T18:31:35.344Z,3.03
2018-08-06T18:34:03.838Z,2.93
2018-08-06T18:36:32.309Z,3.60
2018-08-06T18:39:00.754Z,3.20
2018-08-06T18:41:29.213Z,4.40
2018-08-06T18:43:57.720Z,3.20
2018-08-06T18:46:26.172Z,3.37
2018-08-06T18:48:54.689Z,4.00
2018-08-06T18:51:23.189Z,4.10
2018-08-06T18:53:51.633Z,4.30
2018-08-06T18:56:20.101Z,3.67
2018-08-06T18:58:48.548Z,3.83
2018-08-06T19:01:17.053Z,4.30
2018-08-06T19:03:45.567Z,3.83
2018-08-06T19:06:14.053Z,4.30
2018-08-06T19:08:42.526Z,3.50
2018-08-06T19:11:10.997Z,4.57
2018-08-06T19:13:44.713Z,3.97
2018-08-06T19:16:13.337Z,3.80
2018-08-06T19:18:47.297Z,3.70
2018-08-06T19:21:15.780Z,3.77
2018-08-06T19:23:44.291Z,4.43
2018-08-06T19:26:12.798Z,4.67
2018-08-06T19:28:41.311Z,3.67
2018-08-06T19:31:17.107Z,3.60
2018-08-06T19:33:45.642Z,4.57
2018-08-06T19:36:14.104Z,4.40
2018-08-06T19:38:42.549Z,5.10
2018-08-06T19:41:11.072Z,3.77
2018-08-06T19:43:39.916Z,5.30
2018-08-06T19:46:08.985Z,4.50
2018-08-06T19:48:37.555Z,4.73
2018-08-06T19:51:06.021Z,4.53
2018-08-06T19:53:34.495Z,4.70
2018-08-06T19:56:08.252Z,4.50
2018-08-06T19:58:36.392Z,4.53
2018-08-06T20:01:04.894Z,3.73
2018-08-06T20:03:33.533Z,5.07
2018-08-06T20:06:01.672Z,5.27
2018-08-06T20:08:30.179Z,4.80
2018-08-06T20:10:58.733Z,5.30
2018-08-06T20:13:27.241Z,4.60
2018-08-06T20:15:55.388Z,6.37
2018-08-06T20:18:23.996Z,4.90
2018-08-06T20:20:52.472Z,4.90
2018-08-06T20:23:20.978Z,5.60
2018-08-06T20:25:49.780Z,4.53
2018-08-06T20:28:18.254Z,5.80
2018-08-06T20:30:47.645Z,5.07
2018-08-06T20:33:16.140Z,5.00
2018-08-06T20:35:44.299Z,5.03
2018-08-06T20:38:12.727Z,4.93
2018-08-06T20:40:41.199Z,5.33
2018-08-06T20:43:09.744Z,4.30
2018-08-06T20:45:38.205Z,5.30
2018-08-06T20:48:06.345Z,4.40
2018-08-06T20:50:34.873Z,3.70
2018-08-06T20:53:03.366Z,4.33
2018-08-06T20:55:31.889Z,5.50
2018-08-06T20:58:00.363Z,4.70
2018-08-06T21:00:28.864Z,4.93
2018-08-06T21:02:57.425Z,4.43
2018-08-06T21:05:25.550Z,5.00
2018-08-06T21:07:54.009Z,3.93
2018-08-06T21:10:22.598Z,3.90
2018-08-06T21:12:51.066Z,3.87
2018-08-06T21:15:19.559Z,3.60
2018-08-06T21:17:48.095Z,3.90
2018-08-06T21:20:17.972Z,4.20
2018-08-06T21:22:47.600Z,4.10
2018-08-06T21:25:16.451Z,4.33
2018-08-06T21:27:46.214Z,3.53
2018-08-06T21:30:16.880Z,4.00
2018-08-06T21:32:51.328Z,4.10
2018-08-06T21:35:20.601Z,4.83
2018-08-06T21:37:49.815Z,3.90
2018-08-06T21:40:19.116Z,4.47
2018-08-06T21:42:47.980Z,3.03
2018-08-06T21:45:16.521Z,2.90
2018-08-06T21:47:45.250Z,3.27
2018-08-06T21:50:14.261Z,3.80
2018-08-06T21:52:42.756Z,3.57
2018-08-06T21:55:11.508Z,3.47
2018-08-06T21:57:40.109Z,4.13
2018-08-06T22:00:31.827Z,4.47
2018-08-06T22:03:00.512Z,3.97
2018-08-06T22:05:28.986Z,5.00
2018-08-06T22:07:57.473Z,3.60
2018-08-06T22:10:26.093Z,4.30
2018-08-06T22:12:54.581Z,5.27
2018-08-06T22:15:22.700Z,4.80
2018-08-06T22:17:51.174Z,4.57
2018-08-06T22:20:19.628Z,4.73
2018-08-06T22:22:48.111Z,3.67
2018-08-06T22:25:16.633Z,4.60
2018-08-06T22:27:44.765Z,4.30
2018-08-06T22:30:13.253Z,4.07
2018-08-06T22:32:41.352Z,3.70
2018-08-06T22:35:12.069Z,4.60
2018-08-06T22:37:41.242Z,3.97
2018-08-06T22:40:11.648Z,4.30
2018-08-06T22:42:40.132Z,3.73
2018-08-06T22:45:10.053Z,3.73
2018-08-06T22:47:38.219Z,3.93
2018-08-06T22:50:08.648Z,3.90
2018-08-06T22:52:37.472Z,4.10
2018-08-06T22:55:05.896Z,4.13
2018-08-06T22:57:34.398Z,4.97
2018-08-06T23:00:04.142Z,3.70
2018-08-06T23:02:32.593Z,4.20
2018-08-06T23:05:00.717Z,4.43
2018-08-06T23:07:29.213Z,5.23
2018-08-06T23:09:57.734Z,3.87
2018-08-06T23:12:26.249Z,3.60
2018-08-06T23:14:54.733Z,5.20
2018-08-06T23:17:23.188Z,4.77
2018-08-06T23:19:51.705Z,4.50
2018-08-06T23:22:20.185Z,5.30
2018-08-06T23:24:48.636Z,4.67
2018-08-06T23:27:17.092Z,4.20
2018-08-06T23:29:45.561Z,3.97
2018-08-06T23:32:14.010Z,4.27
2018-08-06T23:34:42.478Z,3.07
2018-08-06T23:37:10.940Z,4.10
2018-08-06T23:39:39.467Z,3.80
2018-08-06T23:42:07.604Z,3.80
2018-08-06T23:44:36.052Z,4.23
2018-08-06T23:47:04.633Z,3.10
2018-08-06T23:49:33.104Z,3.10
2018-08-06T23:52:01.609Z,2.93
2018-08-06T23:54:30.107Z,3.20
2018-08-06T23:56:58.576Z,4.30
2018-08-06T23:59:27.092Z,3.93
